Darstellungsparameter: Aktuell verwendete Einstellungen:
Skalierung der Graphiken ... ?
xyx+y,   Skalierungsfaktor:      Skalierung: Modus: x, Faktor: 1
Darstellungszeitraum ... ?
Vom - - bis: - -   Zeitraum: 01.08.2009 - 01.08.2009
Min/Max/Avg-Anzeige ... ?
Zeige MMA aktuell
Zeige MMA Monat
Zeige MMA alles
Zeige --A aktuell
Zeige --A Monat
Zeige --A alles
Keine MMA-Anzeige
MMA:
Keine MMA-Graphiken
MMA-Basis: 01.08.2009 - 01.08.2009
Quicknavigation für Darstellung... ?
Tage:      1T, 2T, 3T, 5T -1T -2T -3T -5T +1T +2T +3T +5T
Wochen: 1W, 2W, 3W -1W -2W -3W +1W +2W +3W
Monate: 1M, 3M, 6M -1M -3M -6M +1M +3M +6M
Jahre:    1J, 3J, 5J, 10J -1J -3J -5J -10J +1J +3J +5J +10J
Nutze für die Darstellung ... ?
Originaldaten oder Mittelwerte auf ...
Stundenbasis Tagesbasis Wochenbasis
Monatsbasis Jahresbasis      Datenbasis: Original-Daten
Darstellen als:
Statistik (Auto) Statistik J:M      Darstellung:
Zur Graphik,    zurück zur Übersicht aller Sensoren.
 
Tabellarische Datenbersicht: ?
 
Sensor: Nr:Datum:Temp:Feuchte:Taupunkt:
Aussen-T/F 1 01-08-2009 00:03:02 18.3 C 42 % 5.18 C
2 01-08-2009 00:15:02 17.8 C 45 % 5.72 C
3 01-08-2009 00:27:02 17.5 C 46 % 5.76 C
4 01-08-2009 00:39:02 17.2 C 46 % 5.49 C
5 01-08-2009 00:51:02 17 C 46 % 5.31 C
6 01-08-2009 01:03:02 16.7 C 47 % 5.34 C
7 01-08-2009 01:15:02 16.5 C 49 % 5.76 C
8 01-08-2009 01:27:02 16.2 C 48 % 5.19 C
9 01-08-2009 01:39:02 16 C 50 % 5.59 C
10 01-08-2009 01:51:02 15.8 C 51 % 5.69 C
11 01-08-2009 02:03:03 15.5 C 51 % 5.42 C
12 01-08-2009 02:15:03 15.3 C 53 % 5.79 C
13 01-08-2009 02:27:03 15 C 54 % 5.78 C
14 01-08-2009 02:39:03 14.9 C 56 % 6.21 C
15 01-08-2009 02:51:03 14.7 C 58 % 6.53 C
16 01-08-2009 03:03:03 14.5 C 58 % 6.35 C
17 01-08-2009 03:15:03 14.3 C 60 % 6.65 C
18 01-08-2009 03:27:03 14 C 61 % 6.61 C
19 01-08-2009 03:39:03 13.9 C 64 % 7.21 C
20 01-08-2009 03:51:03 13.8 C 63 % 6.89 C
21 01-08-2009 04:03:03 13.7 C 63 % 6.79 C
22 01-08-2009 04:15:03 13.5 C 65 % 7.06 C
23 01-08-2009 04:27:03 13.5 C 66 % 7.28 C
24 01-08-2009 04:39:03 13.7 C 68 % 7.91 C
25 01-08-2009 04:51:03 13.7 C 68 % 7.91 C
Sensor: Nr:Datum:Temp:Feuchte:Taupunkt:
Aussen-T/F 26 01-08-2009 05:03:03 13.5 C 68 % 7.72 C
27 01-08-2009 05:15:03 13.6 C 68 % 7.81 C
28 01-08-2009 05:27:03 13.5 C 68 % 7.72 C
29 01-08-2009 05:39:03 13.6 C 69 % 8.03 C
30 01-08-2009 05:51:04 13.6 C 69 % 8.03 C
31 01-08-2009 06:03:04 13.6 C 69 % 8.03 C
32 01-08-2009 06:15:04 13.8 C 69 % 8.22 C
33 01-08-2009 06:27:04 13.9 C 69 % 8.31 C
34 01-08-2009 06:39:04 13.9 C 69 % 8.31 C
35 01-08-2009 06:51:04 14.1 C 68 % 8.29 C
36 01-08-2009 07:03:04 14.2 C 68 % 8.39 C
37 01-08-2009 07:15:04 14.1 C 69 % 8.5 C
38 01-08-2009 07:27:04 14.3 C 69 % 8.7 C
39 01-08-2009 07:39:04 14.5 C 69 % 8.89 C
40 01-08-2009 07:51:04 14.7 C 68 % 8.86 C
41 01-08-2009 08:03:04 14.5 C 68 % 8.67 C
42 01-08-2009 08:15:04 14.7 C 69 % 9.08 C
43 01-08-2009 08:27:04 14.7 C 68 % 8.86 C
44 01-08-2009 08:39:04 14.7 C 68 % 8.86 C
45 01-08-2009 08:51:04 14.9 C 67 % 8.83 C
46 01-08-2009 09:03:02 15.5 C 64 % 8.73 C
47 01-08-2009 09:15:01 16.2 C 60 % 8.43 C
48 01-08-2009 09:27:01 17.3 C 56 % 8.45 C
49 01-08-2009 09:39:02 18.2 C 50 % 7.62 C
50 01-08-2009 09:51:01 18.6 C 49 % 7.69 C
Sensor: Nr:Datum:Temp:Feuchte:Taupunkt:
Aussen-T/F 51 01-08-2009 10:03:01 19.3 C 46 % 7.4 C
52 01-08-2009 10:15:01 20.1 C 45 % 7.81 C
53 01-08-2009 10:27:01 21.1 C 42 % 7.7 C
54 01-08-2009 10:39:01 22 C 38 % 7.04 C
55 01-08-2009 10:51:00 23.1 C 35 % 6.82 C
56 01-08-2009 11:03:01 23.6 C 38 % 8.46 C
57 01-08-2009 11:15:01 23.5 C 35 % 7.17 C
58 01-08-2009 11:27:01 23.4 C 36 % 7.49 C
59 01-08-2009 11:39:00 24.1 C 35 % 7.69 C
60 01-08-2009 11:51:00 24.3 C 35 % 7.87 C
61 01-08-2009 12:03:00 25.5 C 33 % 8.06 C
62 01-08-2009 12:15:00 26.7 C 32 % 8.65 C
63 01-08-2009 12:27:01 26.8 C 32 % 8.73 C
64 01-08-2009 12:39:59 26.3 C 34 % 9.19 C
65 01-08-2009 12:51:00 26.7 C 32 % 8.65 C
66 01-08-2009 13:03:59 26.7 C 31 % 8.18 C
67 01-08-2009 13:15:59 28 C 30 % 8.82 C
68 01-08-2009 13:27:59 28.1 C 30 % 8.9 C
69 01-08-2009 13:39:00 28.2 C 31 % 9.48 C
70 01-08-2009 13:51:59 28.7 C 29 % 8.92 C
71 01-08-2009 14:03:59 29.7 C 29 % 9.77 C
72 01-08-2009 14:15:58 30.2 C 26 % 8.58 C
73 01-08-2009 14:27:58 29.9 C 25 % 7.75 C
74 01-08-2009 14:39:59 30.4 C 26 % 8.75 C
75 01-08-2009 14:51:58 31.2 C 22 % 6.97 C
Sensor: Nr:Datum:Temp:Feuchte:Taupunkt:
Aussen-T/F 76 01-08-2009 15:03:58 30.4 C 25 % 8.17 C
77 01-08-2009 15:15:59 30.9 C 23 % 7.37 C
78 01-08-2009 15:27:59 31 C 23 % 7.45 C
79 01-08-2009 15:39:58 31.4 C 21 % 6.46 C
80 01-08-2009 15:51:58 31.5 C 20 % 5.83 C
81 01-08-2009 16:03:58 31.8 C 20 % 6.08 C
82 01-08-2009 16:15:58 32.1 C 20 % 6.32 C
83 01-08-2009 16:27:58 32.6 C 20 % 6.73 C
84 01-08-2009 16:39:57 32.6 C 20 % 6.73 C
85 01-08-2009 16:51:58 32.3 C 20 % 6.49 C
86 01-08-2009 17:03:57 32.7 C 20 % 6.81 C
87 01-08-2009 17:15:57 32.4 C 20 % 6.57 C
88 01-08-2009 17:27:57 31.8 C 20 % 6.08 C
89 01-08-2009 17:39:57 32.4 C 20 % 6.57 C
90 01-08-2009 17:51:57 32.9 C 20 % 6.98 C
91 01-08-2009 18:03:57 33.2 C 20 % 7.22 C
92 01-08-2009 18:15:56 33.2 C 20 % 7.22 C
93 01-08-2009 18:27:56 32.9 C 20 % 6.98 C
94 01-08-2009 18:39:57 33.2 C 20 % 7.22 C
95 01-08-2009 18:51:56 33 C 20 % 7.06 C
96 01-08-2009 19:03:56 32.5 C 20 % 6.65 C
97 01-08-2009 19:15:55 32.2 C 20 % 6.41 C
98 01-08-2009 19:27:55 32.3 C 20 % 6.49 C
99 01-08-2009 19:39:56 31.1 C 26 % 9.34 C
100 01-08-2009 19:51:55 29.7 C 31 % 10.77 C
Sensor: Nr:Datum:Temp:Feuchte:Taupunkt:
Aussen-T/F 101 01-08-2009 20:03:55 29.6 C 31 % 10.68 C
102 01-08-2009 20:15:56 28.9 C 33 % 11.02 C
103 01-08-2009 20:27:56 28.1 C 35 % 11.2 C
104 01-08-2009 20:39:55 27.2 C 36 % 10.84 C
105 01-08-2009 20:51:55 26.5 C 37 % 10.63 C
106 01-08-2009 21:03:55 25.7 C 39 % 10.71 C
107 01-08-2009 21:15:55 25.3 C 40 % 10.74 C
108 01-08-2009 21:27:55 24.6 C 42 % 10.84 C
109 01-08-2009 21:39:54 24.3 C 42 % 10.57 C
110 01-08-2009 21:52:55 24 C 42 % 10.3 C
111 01-08-2009 22:04:55 23.7 C 44 % 10.73 C
112 01-08-2009 22:16:55 23.6 C 43 % 10.3 C
113 01-08-2009 22:28:55 23.2 C 45 % 10.62 C
114 01-08-2009 22:40:55 23.2 C 45 % 10.62 C
115 01-08-2009 22:52:55 22.8 C 47 % 10.91 C
116 01-08-2009 23:04:55 22.6 C 48 % 11.04 C
117 01-08-2009 23:16:55 22.6 C 48 % 11.04 C
118 01-08-2009 23:28:55 22.8 C 47 % 10.91 C
119 01-08-2009 23:40:55 22.6 C 48 % 11.04 C
120 01-08-2009 23:52:55 22.4 C 49 % 11.17 C

Legende:
   Min
   Max


Maximal/Minimal-Werte vom 01.08.2009 - 01.08.2009

Sensor Min Max Avg
Temp
(Aussen-T/F)
13.5 °C
01-08-2009  04:15:03
33.2 °C
01-08-2009  18:03:57
22.46 °C
Feuchte
(Aussen-T/F)
20 %
01-08-2009  15:51:58
69 %
01-08-2009  05:39:03
43.53 %
Taupunkt
(Aussen-T/F)
5.18 C
01-08-2009  00:03:02
11.2 C
01-08-2009  20:27:56
7.94 C

Die Daten stammen von einer Davis Vantage Pro 2 Wetter-Station und werden unter Linux mit der Software wview2wettercgi und aufbereitet. Alle Angaben erfolgen ohne Gewähr für ihre Vollständigkeit oder Richtigkeit.
Kontakt: Rainer Krienke krienke@uni-koblenz.de . Meine Webseiten an der Uni Koblenz oder privat.
Version: $Revision: 0.78 $